Paradise, MI (49768)

12:40 AM EDT on July 04, 2015 (GMT -0400)
whitefish bay of Lake Superior shoreline | | Change Station
CLOSE
Current Station
Personal Weather Station
Location: Paradise, MI
Elevation: 587 ft
Nearby Weather Stations

Elev 587 ft 46.69 °N, 85.03 °W | Updated 6 minutes ago

Partly Cloudy
Partly Cloudy
54.0 °F
Feels Like 54.0 °F
N
0.0
Wind Variable Wind from West

Today
High -- | Low -- °F
--% Chance of Precip.
Yesterday
High -- | Low -- °F
Precip. -- in
5:52 AM 9:36 PM
Waning Gibbous, 94% visible
Pressure 29.89 in
Visibility 10.0 miles
Clouds Clear
Dew Point 52 °F
Humidity 94%
Rainfall 0.00 in
Snow Depth Not available.
UV 0 out of 12
Pollen 4.70 out of 12
Air Quality Not available.
Flu Activity Not available.
METAR KERY 040434Z AUTO 00000KT 10SM CLR 11/11 A2989 RMK AO2 T01130106

More Conditions Fewer Conditions

Pressure 29.89 in
Visibility 10.0 miles
Clouds Clear
Dew Point 52 °F
Humidity 94%
Rainfall 0.00 in
Snow Depth Not available.
UV 0 out of 12
Pollen 4.70 out of 12
Air Quality Not available.
Flu Activity Not available.
METAR KERY 040434Z AUTO 00000KT 10SM CLR 11/11 A2989 RMK AO2 T01130106

More Conditions Fewer Conditions

Nowcast | as of 12:00 am EDT on July 4, 2015

At 1 am...partly cloudy. Temperature 58. Light winds. At 3 am...partly cloudy. Temperature 56. Light winds. At 5 am...partly cloudy. Temperature 55. Light winds. At 7 am...partly cloudy. Temperature 53. Light winds.

×

10-Day Weather Forecast

×

Almanac

Astronomy

Jul. 04, 2015 Rise Set
Actual Time
Civil Twilight
Nautical Twilight
Astronomical Twilight
Moon
Length of Visible Light
Length of Day
Tomorrow will be .
, % of the Moon is Illuminated

Today's Extremes

State Highs State Lows

Community

WunderPhotos

Upload Photos

1,834,931 photos uploaded!

WunderBlogs® & News

Nearby

Air Quality

  Air Quality AQ Index Pollutant
Not available.

Snow Depth

Station Depth Elevation

Earthquake Activity

City Distance Mag. Time & Date
Minimum magnitude displayed is 2.5.

Coastal Water Temperatures

Place Temperature

Stations

Nearby Weather Stations

Station Location Temp. Windchill Dew Point Humidity Wind Precip. Elev Updated Type